Time;durP1;ratioP1;P1;durP2;ratioP2;P2;SDS_P1;SDS_P2;PMS_P1;PMS_P2;Temp;Humidity;BMP_temperature;BMP_pressure;BME280_temperature;BME280_humidity;BME280_pressure;Samples;Min_cycle;Max_cycle;Signal;HPM_P1;HPM_P2
2023/10/27 00:00:57;;;;;;;30.85;17.73;;;7.10;99.90;;;;;;5112565;28;20023;-76
2023/10/27 00:03:23;;;;;;;28.67;19.25;;;7.00;99.90;;;;;;5112341;28;20400;-76
2023/10/27 00:05:49;;;;;;;26.25;17.75;;;7.00;99.90;;;;;;5113661;28;20076;-77
2023/10/27 00:08:14;;;;;;;26.23;16.20;;;6.90;99.90;;;;;;5104235;28;20024;-82
2023/10/27 00:10:40;;;;;;;24.73;16.27;;;6.90;99.90;;;;;;5113425;28;20026;-79
2023/10/27 00:13:06;;;;;;;29.42;17.50;;;6.80;99.90;;;;;;5113328;28;20028;-81
2023/10/27 00:15:31;;;;;;;33.15;20.10;;;6.80;99.90;;;;;;5113033;28;20457;-77
2023/10/27 00:17:58;;;;;;;26.42;16.98;;;6.80;99.90;;;;;;5113233;28;20019;-76
2023/10/27 00:20:27;;;;;;;22.75;15.15;;;6.70;99.90;;;;;;5111041;28;20472;-81
2023/10/27 00:22:53;;;;;;;23.65;13.98;;;6.60;99.90;;;;;;5111687;28;20142;-77
2023/10/27 00:25:18;;;;;;;23.05;13.90;;;6.60;99.90;;;;;;5112049;28;20098;-81
2023/10/27 00:27:44;;;;;;;23.30;13.35;;;6.50;99.90;;;;;;5113091;28;20028;-81
2023/10/27 00:30:11;;;;;;;23.27;13.32;;;6.40;99.90;;;;;;5113478;28;20047;-81
2023/10/27 00:32:36;;;;;;;18.20;12.15;;;6.40;99.90;;;;;;5113153;28;20034;-81
2023/10/27 00:35:04;;;;;;;22.10;12.82;;;6.40;99.90;;;;;;5113314;28;20501;-81
2023/10/27 00:37:33;;;;;;;21.58;12.75;;;6.40;99.90;;;;;;5113049;28;20024;-81
2023/10/27 00:39:59;;;;;;;18.35;11.65;;;6.40;99.90;;;;;;5111985;28;20384;-77
2023/10/27 00:42:25;;;;;;;20.95;13.50;;;6.30;99.90;;;;;;5112990;28;20127;-81
2023/10/27 00:44:51;;;;;;;21.25;12.70;;;6.30;99.90;;;;;;5112903;28;20015;-81
2023/10/27 00:47:17;;;;;;;18.70;12.27;;;6.30;99.90;;;;;;5145892;27;20026;-81
2023/10/27 00:49:43;;;;;;;17.67;12.10;;;6.30;99.90;;;;;;5111583;28;20024;-80
2023/10/27 00:52:10;;;;;;;19.45;12.07;;;6.30;99.90;;;;;;5111855;28;20103;-76
2023/10/27 00:54:36;;;;;;;21.40;12.85;;;6.30;99.90;;;;;;5112913;28;20042;-80
2023/10/27 00:57:02;;;;;;;19.92;12.10;;;6.20;99.90;;;;;;5139914;27;20420;-76
2023/10/27 00:59:28;;;;;;;19.38;12.13;;;6.20;99.90;;;;;;5112954;28;20011;-77
2023/10/27 01:01:53;;;;;;;24.13;13.05;;;6.20;99.90;;;;;;5112218;28;20015;-81
2023/10/27 01:04:19;;;;;;;22.85;11.80;;;6.20;99.90;;;;;;5115751;28;20060;-76
2023/10/27 01:06:45;;;;;;;18.73;11.82;;;6.20;99.90;;;;;;5117372;28;20066;-76
2023/10/27 01:09:11;;;;;;;24.20;11.70;;;6.20;99.90;;;;;;5117118;28;20023;-80
2023/10/27 01:11:38;;;;;;;23.70;13.60;;;6.10;99.90;;;;;;5117300;28;20524;-81
2023/10/27 01:14:03;;;;;;;21.45;13.00;;;6.00;99.90;;;;;;5116971;28;20020;-75
2023/10/27 01:16:29;;;;;;;18.05;12.20;;;6.00;99.90;;;;;;5116904;28;20016;-80
2023/10/27 01:18:55;;;;;;;20.48;12.43;;;5.90;99.90;;;;;;5116972;28;20461;-80
2023/10/27 01:21:21;;;;;;;21.60;14.45;;;5.90;99.90;;;;;;5117020;28;20148;-76
2023/10/27 01:23:46;;;;;;;22.98;13.43;;;5.90;99.90;;;;;;5116714;28;20118;-76
2023/10/27 01:26:12;;;;;;;19.55;14.65;;;5.80;99.90;;;;;;5116999;28;20065;-76
2023/10/27 01:28:37;;;;;;;21.88;13.65;;;5.70;99.90;;;;;;5115257;28;20035;-75
2023/10/27 01:31:03;;;;;;;22.80;15.00;;;5.70;99.90;;;;;;5114398;28;20048;-80
2023/10/27 01:33:29;;;;;;;21.63;14.25;;;5.60;99.90;;;;;;5113277;28;20043;-76
2023/10/27 01:35:55;;;;;;;19.67;14.38;;;5.60;99.90;;;;;;5112478;28;20026;-80
2023/10/27 01:38:20;;;;;;;19.63;13.68;;;5.60;99.90;;;;;;5116496;28;20020;-76
2023/10/27 01:40:46;;;;;;;24.10;15.63;;;5.50;99.90;;;;;;5116540;28;20031;-76
2023/10/27 01:43:12;;;;;;;32.25;18.25;;;5.50;99.90;;;;;;5147814;27;20462;-76
2023/10/27 01:45:38;;;;;;;31.05;19.33;;;5.40;99.90;;;;;;5116288;28;20377;-76
2023/10/27 01:48:04;;;;;;;26.88;14.93;;;5.40;99.90;;;;;;5116229;28;20020;-80
2023/10/27 01:50:29;;;;;;;22.30;13.13;;;5.30;99.90;;;;;;5104520;28;20015;-80
2023/10/27 01:52:55;;;;;;;25.73;13.63;;;5.40;99.90;;;;;;5114965;28;20027;-75
2023/10/27 01:55:21;;;;;;;20.35;11.93;;;5.30;99.90;;;;;;5104457;28;20024;-79
2023/10/27 01:57:46;;;;;;;20.38;12.70;;;5.40;99.90;;;;;;5116332;27;20032;-75
2023/10/27 02:00:13;;;;;;;16.95;12.15;;;5.30;99.90;;;;;;5116213;28;20031;-81
2023/10/27 02:02:39;;;;;;;18.23;11.23;;;5.30;99.90;;;;;;5114472;28;20101;-76
2023/10/27 02:05:05;;;;;;;19.33;11.38;;;5.30;99.90;;;;;;5145917;27;20019;-76
2023/10/27 02:07:31;;;;;;;21.25;12.20;;;5.30;99.90;;;;;;5115826;28;20084;-75
2023/10/27 02:10:00;;;;;;;21.65;13.32;;;5.30;99.90;;;;;;5116075;28;20106;-80
2023/10/27 02:12:28;;;;;;;19.15;13.07;;;5.30;99.90;;;;;;5114528;28;20024;-76
2023/10/27 02:14:54;;;;;;;18.50;11.85;;;5.20;99.90;;;;;;5114645;28;20027;-75
2023/10/27 02:17:20;;;;;;;16.63;10.60;;;5.20;99.90;;;;;;5114137;28;20027;-79
2023/10/27 02:19:47;;;;;;;16.83;10.68;;;5.20;99.90;;;;;;5143580;27;20024;-75
2023/10/27 02:22:13;;;;;;;19.10;12.20;;;5.20;99.90;;;;;;5114445;28;20024;-75
2023/10/27 02:24:39;;;;;;;17.45;11.48;;;5.10;99.90;;;;;;5114433;28;20354;-79
2023/10/27 02:27:05;;;;;;;16.58;10.18;;;5.10;99.90;;;;;;5115423;28;20020;-75
2023/10/27 02:29:31;;;;;;;17.88;11.40;;;5.00;99.90;;;;;;5115619;28;20050;-79
2023/10/27 02:31:57;;;;;;;20.35;12.27;;;5.00;99.90;;;;;;5115363;28;20437;-75
2023/10/27 02:34:22;;;;;;;18.73;11.48;;;5.00;99.90;;;;;;5114480;28;20020;-75
2023/10/27 02:36:48;;;;;;;17.35;13.43;;;4.90;99.90;;;;;;5115264;28;20054;-76
2023/10/27 02:39:14;;;;;;;17.55;11.70;;;4.90;99.90;;;;;;5114245;28;20020;-80
2023/10/27 02:41:39;;;;;;;15.45;11.63;;;4.90;99.90;;;;;;5115325;28;20043;-76
2023/10/27 02:44:05;;;;;;;17.98;11.82;;;4.90;99.90;;;;;;5114180;28;20476;-80
2023/10/27 02:46:33;;;;;;;14.10;9.65;;;4.90;99.90;;;;;;5113472;28;20031;-80
2023/10/27 02:48:58;;;;;;;15.82;10.20;;;4.90;99.90;;;;;;5114166;28;20613;-80
2023/10/27 02:51:25;;;;;;;28.52;13.23;;;4.90;99.90;;;;;;5115037;28;20084;-80
2023/10/27 02:53:50;;;;;;;16.42;10.18;;;4.90;99.90;;;;;;5113994;28;20477;-76
2023/10/27 02:56:16;;;;;;;17.50;9.95;;;4.90;99.90;;;;;;5113579;28;20103;-75
2023/10/27 02:58:42;;;;;;;17.60;9.38;;;4.90;99.90;;;;;;5113974;28;20034;-79
2023/10/27 03:01:14;;;;;;;17.25;11.02;;;4.80;99.90;;;;;;5114852;28;20028;-75
2023/10/27 03:03:41;;;;;;;14.35;10.18;;;4.80;99.90;;;;;;5115122;28;20038;-75
2023/10/27 03:06:07;;;;;;;13.57;9.55;;;4.80;99.90;;;;;;5114642;28;20019;-75
2023/10/27 03:08:34;;;;;;;16.38;10.63;;;4.80;99.90;;;;;;5113844;28;20397;-75
2023/10/27 03:11:00;;;;;;;19.75;12.98;;;4.70;99.90;;;;;;5114708;28;20032;-75
2023/10/27 03:13:27;;;;;;;17.33;12.57;;;4.70;99.90;;;;;;5113710;28;20020;-79
2023/10/27 03:15:53;;;;;;;21.42;12.77;;;4.60;99.90;;;;;;5112932;28;20019;-75
2023/10/27 03:18:19;;;;;;;31.42;16.52;;;4.60;99.90;;;;;;5114804;28;20027;-80
2023/10/27 03:20:44;;;;;;;27.10;14.88;;;4.50;99.90;;;;;;5113196;28;20053;-80
2023/10/27 03:23:10;;;;;;;26.95;14.65;;;4.50;99.90;;;;;;5114658;28;20105;-79
2023/10/27 03:25:36;;;;;;;18.48;12.52;;;4.50;99.90;;;;;;5113405;28;20409;-79
2023/10/27 03:28:01;;;;;;;15.48;9.77;;;4.50;99.90;;;;;;5114875;28;20049;-75
2023/10/27 03:30:28;;;;;;;15.73;9.65;;;4.40;99.90;;;;;;5114318;28;20471;-80
2023/10/27 03:32:54;;;;;;;13.82;9.90;;;4.40;99.90;;;;;;5114744;28;20031;-80
2023/10/27 03:35:20;;;;;;;13.68;9.18;;;4.40;99.90;;;;;;5113050;28;20020;-79
2023/10/27 03:37:46;;;;;;;16.50;11.63;;;4.40;99.90;;;;;;5114609;28;20034;-79
2023/10/27 03:40:11;;;;;;;19.17;10.43;;;4.40;99.90;;;;;;5114139;28;20529;-75
2023/10/27 03:42:37;;;;;;;17.73;10.60;;;4.40;99.90;;;;;;5114023;27;20055;-79
2023/10/27 03:45:03;;;;;;;16.83;12.07;;;4.30;99.90;;;;;;5112727;28;20020;-75
2023/10/27 03:47:29;;;;;;;17.42;12.48;;;4.40;99.90;;;;;;5112909;28;20453;-80
2023/10/27 03:49:55;;;;;;;15.88;10.88;;;4.30;99.90;;;;;;5114123;28;20030;-78
2023/10/27 03:52:20;;;;;;;17.70;11.52;;;4.30;99.90;;;;;;5140437;27;20381;-75
2023/10/27 03:54:46;;;;;;;16.77;10.15;;;4.30;99.90;;;;;;5114064;28;20090;-79
2023/10/27 03:57:11;;;;;;;14.88;9.48;;;4.30;99.90;;;;;;5113991;28;20028;-75
2023/10/27 03:59:37;;;;;;;15.48;9.65;;;4.30;99.90;;;;;;5113648;28;20020;-75
2023/10/27 04:02:05;;;;;;;16.67;10.20;;;4.30;99.90;;;;;;5113548;28;20510;-75
2023/10/27 04:04:30;;;;;;;21.85;11.63;;;4.30;99.90;;;;;;5112491;28;20011;-79
2023/10/27 04:06:57;;;;;;;18.30;12.52;;;4.30;99.90;;;;;;5112499;28;20480;-76
2023/10/27 04:09:22;;;;;;;20.40;12.48;;;4.30;99.90;;;;;;5112571;28;20019;-77
2023/10/27 04:11:49;;;;;;;21.88;13.63;;;4.30;99.90;;;;;;5112529;28;20030;-80
2023/10/27 04:14:15;;;;;;;23.98;14.00;;;4.20;99.90;;;;;;5112302;28;20026;-79
2023/10/27 04:16:40;;;;;;;23.10;13.30;;;4.20;99.90;;;;;;5112344;28;20461;-80
2023/10/27 04:19:06;;;;;;;29.15;15.75;;;4.20;99.90;;;;;;5113326;28;20027;-80
2023/10/27 04:21:32;;;;;;;31.42;16.90;;;4.20;99.90;;;;;;5112190;28;20392;-75
2023/10/27 04:23:58;;;;;;;33.08;15.30;;;4.20;99.90;;;;;;5146322;27;20488;-79
2023/10/27 04:26:24;;;;;;;45.40;14.85;;;4.30;99.90;;;;;;5112259;28;20016;-75
2023/10/27 04:28:50;;;;;;;29.13;15.43;;;4.40;99.90;;;;;;5105629;28;20369;-80
2023/10/27 04:31:16;;;;;;;44.08;15.63;;;4.40;99.90;;;;;;5113151;28;20044;-79
2023/10/27 04:33:43;;;;;;;42.65;14.93;;;4.60;99.90;;;;;;5113098;28;20028;-79
2023/10/27 04:36:09;;;;;;;49.05;17.00;;;4.60;99.90;;;;;;5110981;28;20049;-79
2023/10/27 04:38:34;;;;;;;90.97;18.00;;;4.60;99.90;;;;;;5112312;28;20019;-80
2023/10/27 04:41:00;;;;;;;45.65;14.65;;;4.60;99.90;;;;;;5113196;27;20054;-75
2023/10/27 04:43:26;;;;;;;57.95;16.80;;;4.70;99.90;;;;;;5111320;28;20062;-78
2023/10/27 04:45:51;;;;;;;44.75;14.27;;;4.70;99.90;;;;;;5111603;28;20044;-80
2023/10/27 04:48:17;;;;;;;67.25;16.08;;;4.80;99.90;;;;;;5107780;28;20059;-80
2023/10/27 04:50:43;;;;;;;46.65;13.77;;;4.80;99.90;;;;;;5112598;28;20051;-80
2023/10/27 04:53:08;;;;;;;69.50;15.55;;;4.90;99.90;;;;;;5111752;28;20032;-80
2023/10/27 04:55:34;;;;;;;44.53;14.00;;;4.90;99.90;;;;;;5111202;28;20491;-80
2023/10/27 04:58:00;;;;;;;48.10;13.82;;;5.00;99.90;;;;;;5106959;28;20012;-80
2023/10/27 05:00:25;;;;;;;71.00;15.32;;;5.00;99.90;;;;;;5111225;28;20096;-80
2023/10/27 05:02:53;;;;;;;48.00;13.23;;;5.00;99.90;;;;;;5112863;28;20122;-80
2023/10/27 05:05:20;;;;;;;46.50;12.73;;;5.10;99.90;;;;;;5110676;28;20381;-80
2023/10/27 05:07:47;;;;;;;39.22;14.38;;;5.10;99.90;;;;;;5105301;28;20039;-80
2023/10/27 05:10:13;;;;;;;50.42;17.58;;;5.10;99.90;;;;;;5110943;28;20076;-76
2023/10/27 05:12:39;;;;;;;38.78;16.73;;;5.00;99.90;;;;;;5109784;28;20389;-77
2023/10/27 05:15:06;;;;;;;51.03;20.38;;;4.90;99.90;;;;;;5109826;28;20024;-77
2023/10/27 05:17:35;;;;;;;42.22;17.38;;;4.80;99.90;;;;;;5108648;28;20395;-77
2023/10/27 05:20:05;;;;;;;38.03;18.25;;;4.80;99.90;;;;;;5108575;28;20022;-79
2023/10/27 05:22:31;;;;;;;39.60;17.80;;;4.80;99.90;;;;;;5101296;28;20114;-80
2023/10/27 05:24:57;;;;;;;55.72;20.65;;;4.80;99.90;;;;;;5110316;28;20169;-76
2023/10/27 05:27:24;;;;;;;45.05;18.58;;;4.80;99.90;;;;;;5108618;28;20156;-76
2023/10/27 05:29:50;;;;;;;36.90;17.65;;;4.90;99.90;;;;;;5107170;28;20556;-76
2023/10/27 05:32:17;;;;;;;44.60;20.73;;;4.90;99.90;;;;;;5108575;28;20028;-79
2023/10/27 05:34:44;;;;;;;37.42;18.95;;;5.00;99.90;;;;;;5110559;28;20024;-75
2023/10/27 05:37:10;;;;;;;49.15;22.23;;;5.00;99.90;;;;;;5110607;28;20038;-80
2023/10/27 05:39:35;;;;;;;54.72;24.98;;;5.00;99.90;;;;;;5109272;28;20020;-80
2023/10/27 05:42:01;;;;;;;53.53;25.42;;;5.00;99.90;;;;;;5108943;28;20073;-80
2023/10/27 05:44:26;;;;;;;51.70;23.45;;;5.10;99.90;;;;;;5112219;28;20028;-80
2023/10/27 05:46:52;;;;;;;42.15;20.05;;;5.10;99.90;;;;;;5112812;28;20098;-81
2023/10/27 05:49:18;;;;;;;40.42;20.15;;;5.10;99.90;;;;;;5110982;27;20038;-80
2023/10/27 05:51:44;;;;;;;33.10;18.02;;;5.10;99.90;;;;;;5106693;28;20016;-80
2023/10/27 05:54:09;;;;;;;27.88;14.52;;;5.10;99.90;;;;;;5110858;28;20131;-76
2023/10/27 05:56:35;;;;;;;31.17;18.70;;;5.10;99.90;;;;;;5114604;28;20020;-76
2023/10/27 05:59:01;;;;;;;25.15;13.38;;;5.10;99.90;;;;;;5106861;28;20027;-76
2023/10/27 06:01:26;;;;;;;23.50;10.98;;;5.20;99.90;;;;;;5114486;28;20019;-76
2023/10/27 06:03:57;;;;;;;30.15;11.95;;;5.30;99.90;;;;;;5111052;28;20046;-76
2023/10/27 06:06:23;;;;;;;24.67;11.80;;;5.40;99.90;;;;;;5107362;28;20038;-80
2023/10/27 06:08:48;;;;;;;29.67;12.98;;;5.40;99.90;;;;;;5115402;28;20076;-76
2023/10/27 06:11:14;;;;;;;42.70;14.07;;;5.50;99.90;;;;;;5115764;28;20020;-76
2023/10/27 06:13:40;;;;;;;35.40;13.52;;;5.50;99.90;;;;;;5113983;28;20066;-80
2023/10/27 06:16:07;;;;;;;48.22;16.17;;;5.60;99.90;;;;;;5114100;28;20020;-76
2023/10/27 06:18:33;;;;;;;39.60;20.20;;;5.60;99.90;;;;;;5114564;28;20020;-76
2023/10/27 06:20:59;;;;;;;144.27;28.90;;;5.70;99.90;;;;;;5115491;28;20027;-76
2023/10/27 06:23:25;;;;;;;60.95;16.85;;;5.70;99.90;;;;;;5100809;28;20028;-76
2023/10/27 06:25:50;;;;;;;83.43;19.13;;;5.80;99.90;;;;;;5111691;28;20016;-76
2023/10/27 06:28:16;;;;;;;41.10;14.98;;;5.80;99.90;;;;;;5143798;27;20015;-76
2023/10/27 06:30:42;;;;;;;52.83;17.00;;;5.90;99.90;;;;;;5104740;28;20146;-80
2023/10/27 06:33:07;;;;;;;62.30;18.83;;;6.00;99.90;;;;;;5114144;28;20433;-76
2023/10/27 06:35:33;;;;;;;40.60;18.52;;;6.00;99.90;;;;;;5114152;28;20011;-80
2023/10/27 06:37:59;;;;;;;74.53;23.13;;;6.00;99.90;;;;;;5115909;28;20098;-76
2023/10/27 06:40:25;;;;;;;87.22;22.95;;;6.10;99.90;;;;;;5115638;28;20092;-80
2023/10/27 06:42:50;;;;;;;49.75;16.85;;;6.20;99.90;;;;;;5113973;28;20044;-80
2023/10/27 06:45:16;;;;;;;49.85;18.10;;;6.20;99.90;;;;;;5113943;28;20015;-80
2023/10/27 06:47:42;;;;;;;40.45;16.23;;;6.20;99.90;;;;;;5115369;28;20483;-76
2023/10/27 06:50:08;;;;;;;42.72;16.75;;;6.30;99.90;;;;;;5104070;28;20077;-76
2023/10/27 06:52:34;;;;;;;40.40;15.45;;;6.30;99.90;;;;;;5115373;28;20034;-80
2023/10/27 06:55:00;;;;;;;46.03;19.85;;;6.40;99.90;;;;;;5114161;28;20110;-80
2023/10/27 06:57:27;;;;;;;41.67;18.40;;;6.40;99.90;;;;;;5114233;28;20106;-76
2023/10/27 06:59:55;;;;;;;40.13;18.35;;;6.50;99.90;;;;;;5112764;28;20432;-75
2023/10/27 07:02:22;;;;;;;41.92;19.80;;;6.50;99.90;;;;;;5113708;28;20481;-76
2023/10/27 07:04:47;;;;;;;38.50;19.23;;;6.60;99.90;;;;;;5114035;28;20135;-77
2023/10/27 07:07:13;;;;;;;39.75;18.63;;;6.70;99.90;;;;;;5113063;28;20107;-76
2023/10/27 07:09:39;;;;;;;46.83;19.48;;;6.70;99.90;;;;;;5103869;28;20022;-75
2023/10/27 07:12:05;;;;;;;34.13;17.48;;;6.80;99.90;;;;;;5114750;28;20031;-80
2023/10/27 07:14:31;;;;;;;38.45;19.25;;;6.80;99.90;;;;;;5133293;27;20024;-79
2023/10/27 07:16:59;;;;;;;43.85;19.08;;;6.80;99.90;;;;;;5112668;28;20019;-79
2023/10/27 07:19:25;;;;;;;36.00;18.17;;;6.80;99.90;;;;;;5099702;28;20020;-76
2023/10/27 07:21:51;;;;;;;38.72;18.10;;;6.90;99.90;;;;;;5114642;28;20103;-76
2023/10/27 07:24:16;;;;;;;41.85;20.27;;;6.90;99.90;;;;;;5114369;28;20110;-77
2023/10/27 07:26:42;;;;;;;37.97;18.70;;;7.00;99.90;;;;;;5107720;28;20034;-80
2023/10/27 07:29:08;;;;;;;41.85;20.48;;;7.00;99.90;;;;;;5114552;28;20032;-76
2023/10/27 07:31:34;;;;;;;47.30;22.45;;;7.00;99.90;;;;;;5111407;28;20016;-76
2023/10/27 07:33:59;;;;;;;37.10;21.42;;;7.10;99.90;;;;;;5111906;28;20106;-80
2023/10/27 07:36:25;;;;;;;42.88;22.05;;;7.20;99.90;;;;;;5112225;28;20129;-80
2023/10/27 07:38:51;;;;;;;37.90;20.95;;;7.20;99.90;;;;;;5112770;28;20102;-77
2023/10/27 07:41:17;;;;;;;38.85;20.52;;;7.20;99.90;;;;;;5110812;28;20023;-80
2023/10/27 07:43:43;;;;;;;38.80;21.05;;;7.20;99.90;;;;;;5112472;28;20077;-77
2023/10/27 07:46:08;;;;;;;49.85;24.02;;;7.20;99.90;;;;;;5112434;28;20019;-77
2023/10/27 07:48:34;;;;;;;41.90;22.20;;;7.30;99.90;;;;;;5113128;28;20016;-80
2023/10/27 07:51:00;;;;;;;39.05;20.80;;;7.30;99.90;;;;;;5112744;28;20016;-76
2023/10/27 07:53:27;;;;;;;38.28;20.15;;;7.30;99.90;;;;;;5110914;28;20492;-80
2023/10/27 07:55:53;;;;;;;40.50;22.05;;;7.40;99.90;;;;;;5111804;28;20069;-80
2023/10/27 07:58:22;;;;;;;39.28;20.77;;;7.40;99.90;;;;;;5112009;28;20384;-76
2023/10/27 08:00:49;;;;;;;37.72;20.42;;;7.40;99.90;;;;;;5110810;28;20476;-80
2023/10/27 08:03:14;;;;;;;40.03;20.20;;;7.50;99.90;;;;;;5112121;28;20524;-80
2023/10/27 08:05:40;;;;;;;37.78;21.05;;;7.60;99.90;;;;;;5111999;28;20055;-77
2023/10/27 08:08:06;;;;;;;34.30;19.65;;;7.60;99.90;;;;;;5112824;28;20396;-80
2023/10/27 08:10:32;;;;;;;36.55;20.05;;;7.70;99.90;;;;;;5113531;28;20008;-77
2023/10/27 08:12:58;;;;;;;32.47;18.75;;;7.70;99.90;;;;;;5104516;28;20047;-78
2023/10/27 08:15:23;;;;;;;37.17;22.63;;;7.80;99.90;;;;;;5103539;28;20372;-77
2023/10/27 08:17:49;;;;;;;41.13;23.70;;;7.80;99.90;;;;;;5113721;28;20046;-80
2023/10/27 08:20:16;;;;;;;38.35;22.48;;;7.90;99.90;;;;;;5113792;28;20020;-80
2023/10/27 08:22:43;;;;;;;37.63;20.45;;;8.00;99.90;;;;;;5112253;28;20404;-81
2023/10/27 08:25:09;;;;;;;38.05;20.80;;;8.00;99.90;;;;;;5113654;28;20024;-81
2023/10/27 08:27:35;;;;;;;40.28;20.63;;;8.00;99.90;;;;;;5112290;28;20008;-77
2023/10/27 08:30:01;;;;;;;42.55;21.85;;;8.10;99.90;;;;;;5112199;28;20655;-77
2023/10/27 08:32:26;;;;;;;41.28;22.30;;;8.10;99.90;;;;;;5113589;28;20094;-81
2023/10/27 08:34:52;;;;;;;39.75;20.23;;;8.10;99.90;;;;;;5113689;28;20103;-81
2023/10/27 08:37:18;;;;;;;38.00;22.17;;;8.20;99.90;;;;;;5112066;28;20449;-81
2023/10/27 08:39:44;;;;;;;37.33;21.60;;;8.20;99.90;;;;;;5112184;28;20022;-81
2023/10/27 08:42:10;;;;;;;40.65;22.83;;;8.30;99.90;;;;;;5145411;27;20077;-77
2023/10/27 08:44:36;;;;;;;38.45;21.67;;;8.30;99.90;;;;;;5112160;28;20054;-80
2023/10/27 08:47:05;;;;;;;34.42;20.60;;;8.30;99.90;;;;;;5113200;28;20499;-79
2023/10/27 08:49:31;;;;;;;33.58;20.05;;;8.30;99.90;;;;;;5113316;28;20043;-76
2023/10/27 08:52:02;;;;;;;33.33;19.25;;;8.40;99.90;;;;;;5098605;28;20023;-80
2023/10/27 08:54:32;;;;;;;32.30;19.40;;;8.40;99.90;;;;;;5113594;28;20058;-77
2023/10/27 08:56:57;;;;;;;35.03;20.92;;;8.40;99.90;;;;;;5113454;28;20370;-77
2023/10/27 08:59:24;;;;;;;33.10;20.23;;;8.50;99.90;;;;;;5113520;28;20026;-76
2023/10/27 09:01:49;;;;;;;33.80;19.10;;;8.50;99.90;;;;;;5111680;28;20034;-77
2023/10/27 09:04:19;;;;;;;36.47;20.02;;;8.60;99.90;;;;;;5112801;28;20485;-81
2023/10/27 09:06:45;;;;;;;31.23;17.40;;;8.60;99.90;;;;;;5113170;28;20024;-77
2023/10/27 09:09:11;;;;;;;24.20;15.25;;;8.60;99.90;;;;;;5111613;28;20023;-78
2023/10/27 09:11:44;;;;;;;23.13;15.13;;;8.70;99.90;;;;;;5111745;28;20145;-77
2023/10/27 09:14:32;;;;;;;17.95;12.32;;;8.70;99.90;;;;;;5111432;28;20020;-81
2023/10/27 09:17:09;;;;;;;18.35;13.30;;;8.80;99.90;;;;;;5112974;28;20495;-78
2023/10/27 09:19:35;;;;;;;18.15;12.55;;;8.80;99.90;;;;;;5098754;28;20037;-81
2023/10/27 09:22:05;;;;;;;26.95;14.45;;;8.90;99.90;;;;;;5112964;28;20031;-77
2023/10/27 09:24:31;;;;;;;25.83;17.30;;;9.00;99.90;;;;;;5115307;28;20028;-80
2023/10/27 09:27:00;;;;;;;35.85;19.85;;;9.00;99.90;;;;;;5110454;28;20020;-81
2023/10/27 09:29:27;;;;;;;43.33;23.13;;;9.00;99.90;;;;;;5110085;28;20421;-81
2023/10/27 09:31:53;;;;;;;43.53;26.98;;;9.10;99.90;;;;;;5110277;28;20106;-81
2023/10/27 09:34:23;;;;;;;40.17;27.08;;;9.20;99.90;;;;;;5115066;28;20073;-81
2023/10/27 09:36:56;;;;;;;41.55;28.80;;;9.10;99.90;;;;;;5110660;28;20027;-81
2023/10/27 09:39:23;;;;;;;46.15;28.05;;;9.20;99.90;;;;;;5112341;27;20028;-81
2023/10/27 09:41:52;;;;;;;43.65;28.58;;;9.20;99.90;;;;;;5109448;28;20376;-81
2023/10/27 09:44:20;;;;;;;42.28;27.50;;;9.20;99.90;;;;;;5112996;28;20044;-81
2023/10/27 09:46:53;;;;;;;40.03;25.45;;;9.20;99.90;;;;;;5110992;28;20028;-81
2023/10/27 09:49:30;;;;;;;33.42;21.73;;;9.30;99.90;;;;;;5134852;27;20034;-80
2023/10/27 09:51:59;;;;;;;33.67;21.60;;;9.20;99.90;;;;;;5113839;27;20039;-81
2023/10/27 09:54:34;;;;;;;33.40;20.88;;;9.20;99.90;;;;;;5110975;27;20039;-80
2023/10/27 09:57:00;;;;;;;33.47;20.55;;;9.20;99.90;;;;;;5112413;27;20392;-76
2023/10/27 09:59:28;;;;;;;31.67;19.95;;;9.20;99.90;;;;;;5110069;28;20027;-76
2023/10/27 10:01:55;;;;;;;36.13;20.67;;;9.20;99.90;;;;;;5112412;28;20035;-76
2023/10/27 10:04:52;;;;;;;30.92;18.95;;;9.30;99.90;;;;;;5109259;28;20044;-76
2023/10/27 10:08:10;;;;;;;24.33;17.35;;;9.30;99.90;;;;;;5109798;28;20496;-76
2023/10/27 10:10:33;;;;;;;21.27;14.90;;;9.30;99.90;;;;;;5106662;28;20121;-76
2023/10/27 10:13:18;;;;;;;20.67;13.55;;;9.30;99.90;;;;;;5112725;28;20035;-76
2023/10/27 10:15:45;;;;;;;16.67;12.88;;;9.30;99.90;;;;;;5111379;28;20064;-76
2023/10/27 10:18:20;;;;;;;21.83;14.63;;;9.30;99.90;;;;;;5113307;28;20023;-76
2023/10/27 10:20:47;;;;;;;23.92;16.50;;;9.40;99.90;;;;;;5112054;28;20059;-76
2023/10/27 10:23:13;;;;;;;25.67;16.88;;;9.40;99.90;;;;;;5111104;28;20503;-76
2023/10/27 10:25:52;;;;;;;31.90;18.25;;;9.40;99.90;;;;;;5108200;28;20126;-76
2023/10/27 10:28:17;;;;;;;23.95;16.73;;;9.40;99.90;;;;;;5104489;28;20015;-76
2023/10/27 10:30:46;;;;;;;22.02;15.93;;;9.40;99.90;;;;;;5112191;28;20557;-76
2023/10/27 10:33:23;;;;;;;20.48;13.02;;;9.40;99.90;;;;;;5112177;27;20028;-76
2023/10/27 10:35:51;;;;;;;16.73;12.10;;;9.40;99.90;;;;;;5112348;27;20485;-76
2023/10/27 10:38:22;;;;;;;18.38;11.57;;;9.40;99.90;;;;;;5114308;28;20533;-76
2023/10/27 10:40:52;;;;;;;16.60;12.60;;;9.40;99.90;;;;;;5111666;28;20055;-76
2023/10/27 10:43:25;;;;;;;20.50;13.55;;;9.50;99.90;;;;;;5112185;28;20039;-76
2023/10/27 10:45:53;;;;;;;;;;;9.50;99.90;;;;;;5111978;28;20035;-76
2023/10/27 10:48:20;;;;;;;16.98;10.80;;;9.50;99.90;;;;;;5113758;28;20289;-75
2023/10/27 10:50:47;;;;;;;16.70;10.55;;;9.50;99.90;;;;;;5113021;27;20028;-75
2023/10/27 10:53:17;;;;;;;16.90;10.02;;;9.50;99.90;;;;;;5112534;28;20062;-76
2023/10/27 10:55:45;;;;;;;16.92;9.82;;;9.50;99.90;;;;;;5111716;28;20396;-76
2023/10/27 10:58:11;;;;;;;17.17;10.50;;;9.50;99.90;;;;;;5109983;28;20027;-76
2023/10/27 11:00:36;;;;;;;16.55;9.65;;;9.50;99.90;;;;;;5110814;28;20509;-78
2023/10/27 11:03:09;;;;;;;14.70;9.73;;;9.50;99.90;;;;;;5111128;28;20032;-75
2023/10/27 11:05:36;;;;;;;16.75;9.50;;;9.60;99.90;;;;;;5111483;27;20038;-75
2023/10/27 11:08:03;;;;;;;15.68;9.82;;;9.60;99.90;;;;;;5112187;28;20380;-75
2023/10/27 11:10:29;;;;;;;14.32;9.25;;;9.60;99.90;;;;;;5111163;28;20032;-75
2023/10/27 11:12:54;;;;;;;13.57;8.60;;;9.60;99.90;;;;;;5112571;27;20020;-75
2023/10/27 11:15:40;;;;;;;10.60;8.88;;;9.60;99.90;;;;;;5113389;28;20023;-75
2023/10/27 11:18:07;;;;;;;13.80;9.13;;;9.60;99.90;;;;;;5113160;28;20047;-77
2023/10/27 11:20:39;;;;;;;13.70;8.50;;;9.60;99.90;;;;;;5111790;28;20019;-76
2023/10/27 11:23:13;;;;;;;12.68;9.20;;;9.70;99.90;;;;;;5109233;28;20124;-77
2023/10/27 11:25:43;;;;;;;15.38;9.23;;;9.60;99.90;;;;;;5104602;27;20055;-77
2023/10/27 11:28:23;;;;;;;11.82;9.68;;;9.70;99.90;;;;;;5112207;28;20361;-77
2023/10/27 11:31:09;;;;;;;10.77;8.85;;;9.70;99.90;;;;;;5111164;27;20471;-77
2023/10/27 11:34:04;;;;;;;11.82;8.90;;;9.70;99.90;;;;;;5138930;27;20110;-77
2023/10/27 11:36:32;;;;;;;14.30;8.75;;;9.70;99.90;;;;;;5112525;27;20035;-77
2023/10/27 11:39:17;;;;;;;13.80;8.40;;;9.70;99.90;;;;;;5111485;28;20089;-76
2023/10/27 11:41:44;;;;;;;14.85;8.98;;;9.70;99.90;;;;;;5111871;28;20560;-81
2023/10/27 11:44:09;;;;;;;11.02;7.82;;;9.70;99.90;;;;;;5112118;28;20038;-81
2023/10/27 11:46:35;;;;;;;14.18;8.57;;;9.70;99.90;;;;;;5111859;28;20412;-81
2023/10/27 11:49:01;;;;;;;11.43;8.55;;;9.70;99.90;;;;;;5104772;28;20042;-81
2023/10/27 11:51:29;;;;;;;14.45;8.63;;;9.70;99.90;;;;;;5112379;28;20111;-81
2023/10/27 11:53:55;;;;;;;11.90;8.13;;;9.70;99.90;;;;;;5112558;28;20023;-81
2023/10/27 11:56:21;;;;;;;17.33;8.85;;;9.70;99.90;;;;;;5104776;28;20031;-81
2023/10/27 11:58:46;;;;;;;12.18;8.65;;;9.70;99.90;;;;;;5112888;28;20028;-81
2023/10/27 12:01:12;;;;;;;13.80;8.00;;;9.70;99.90;;;;;;5110811;27;20034;-81
2023/10/27 12:03:38;;;;;;;12.48;8.20;;;9.70;99.90;;;;;;5111453;28;20047;-80
2023/10/27 12:06:04;;;;;;;11.40;7.82;;;9.70;99.90;;;;;;5112540;28;20501;-80
2023/10/27 12:08:30;;;;;;;10.73;8.35;;;9.70;99.90;;;;;;5107940;28;20050;-81
2023/10/27 12:10:56;;;;;;;9.40;7.00;;;9.70;99.90;;;;;;5109238;28;20777;-80
2023/10/27 12:13:23;;;;;;;11.38;8.27;;;9.70;99.90;;;;;;5110295;28;20556;-81
2023/10/27 12:15:49;;;;;;;12.93;8.23;;;9.60;99.90;;;;;;5111144;28;20064;-81
2023/10/27 12:18:16;;;;;;;16.50;8.95;;;9.70;99.90;;;;;;5112334;28;20483;-84
2023/10/27 12:20:42;;;;;;;12.02;7.88;;;9.70;99.90;;;;;;5112185;28;20092;-83
2023/10/27 12:23:08;;;;;;;14.05;9.07;;;9.60;99.90;;;;;;5110047;28;20043;-82
2023/10/27 12:25:35;;;;;;;10.52;7.93;;;9.60;99.90;;;;;;5110904;28;20015;-82
2023/10/27 12:28:00;;;;;;;12.00;7.72;;;9.60;99.90;;;;;;5111341;27;20584;-82
2023/10/27 12:30:27;;;;;;;11.05;7.53;;;9.60;99.90;;;;;;5111490;28;20063;-82
2023/10/27 12:32:54;;;;;;;14.85;8.88;;;9.60;99.90;;;;;;5111066;27;20043;-82
2023/10/27 12:35:22;;;;;;;10.13;8.00;;;9.70;99.90;;;;;;5111727;28;20054;-82
2023/10/27 12:37:53;;;;;;;10.88;8.70;;;9.70;99.90;;;;;;5111415;27;20130;-81